createdAt,value
2017-09-27T00:00:36.942Z,1016.98
2017-09-27T00:01:36.920Z,1016.96
2017-09-27T00:02:36.901Z,1016.95
2017-09-27T00:03:36.879Z,1016.97
2017-09-27T00:04:36.863Z,1016.97
2017-09-27T00:05:36.850Z,1016.96
2017-09-27T00:06:36.825Z,1016.99
2017-09-27T00:07:36.838Z,1016.96
2017-09-27T00:08:36.793Z,1016.93
2017-09-27T00:09:36.860Z,1016.98
2017-09-27T00:10:36.760Z,1016.94
2017-09-27T00:11:36.740Z,1016.99
2017-09-27T00:12:36.723Z,1016.97
2017-09-27T00:13:36.709Z,1016.93
2017-09-27T00:14:36.691Z,1016.95
2017-09-27T00:15:36.719Z,1016.92
2017-09-27T00:16:36.652Z,1016.92
2017-09-27T00:17:36.634Z,1016.9
2017-09-27T00:18:36.615Z,1016.88
2017-09-27T00:19:36.598Z,1016.84
2017-09-27T00:20:36.579Z,1016.9
2017-09-27T00:21:36.611Z,1016.88
2017-09-27T00:22:36.550Z,1016.87
2017-09-27T00:23:36.532Z,1016.89
2017-09-27T00:24:36.516Z,1016.88
2017-09-27T00:25:36.645Z,1016.86
2017-09-27T00:26:36.474Z,1016.89
2017-09-27T00:27:36.460Z,1016.88
2017-09-27T00:28:36.438Z,1016.87
2017-09-27T00:29:36.469Z,1016.86
2017-09-27T00:30:36.408Z,1016.88
2017-09-27T00:31:36.391Z,1016.83
2017-09-27T00:32:36.371Z,1016.88
2017-09-27T00:33:36.352Z,1016.88
2017-09-27T00:34:36.329Z,1016.86
2017-09-27T00:35:36.420Z,1016.88
2017-09-27T00:36:36.303Z,1016.84
2017-09-27T00:37:36.333Z,1016.86
2017-09-27T00:38:36.259Z,1016.85
2017-09-27T00:39:36.353Z,1016.82
2017-09-27T00:40:36.228Z,1016.81
2017-09-27T00:41:36.219Z,1016.82
2017-09-27T00:42:36.193Z,1016.81
2017-09-27T00:43:36.181Z,1016.79
2017-09-27T00:44:36.160Z,1016.8
2017-09-27T00:45:36.150Z,1016.79
2017-09-27T00:46:36.120Z,1016.82
2017-09-27T00:47:36.209Z,1016.8
2017-09-27T00:48:36.086Z,1016.82
2017-09-27T00:49:36.117Z,1016.76
2017-09-27T00:50:36.053Z,1016.78
2017-09-27T00:51:36.041Z,1016.76
2017-09-27T00:52:36.015Z,1016.75
2017-09-27T00:53:36.047Z,1016.77
2017-09-27T00:54:35.981Z,1016.73
2017-09-27T00:55:36.012Z,1016.74
2017-09-27T00:56:35.942Z,1016.72
2017-09-27T00:57:35.931Z,1016.7
2017-09-27T00:58:35.913Z,1016.7
2017-09-27T00:59:35.898Z,1016.67
2017-09-27T01:00:35.877Z,1016.66
2017-09-27T01:01:35.857Z,1016.67
2017-09-27T01:02:35.843Z,1016.65
2017-09-27T01:03:35.820Z,1016.66
2017-09-27T01:04:35.807Z,1016.63
2017-09-27T01:05:35.788Z,1016.61
2017-09-27T01:06:35.772Z,1016.66
2017-09-27T01:07:35.749Z,1016.65
2017-09-27T01:08:35.730Z,1016.61
2017-09-27T01:09:35.727Z,1016.62
2017-09-27T01:10:35.700Z,1016.64
2017-09-27T01:11:35.683Z,1016.6
2017-09-27T01:12:35.660Z,1016.63
2017-09-27T01:13:35.646Z,1016.62
2017-09-27T01:14:35.634Z,1016.6
2017-09-27T01:15:35.610Z,1016.61
2017-09-27T01:16:35.591Z,1016.56
2017-09-27T01:17:35.577Z,1016.55
2017-09-27T01:18:35.557Z,1016.55
2017-09-27T01:19:35.536Z,1016.52
2017-09-27T01:20:35.520Z,1016.54
2017-09-27T01:21:35.502Z,1016.53
2017-09-27T01:22:35.489Z,1016.49
2017-09-27T01:23:35.465Z,1016.51
2017-09-27T01:24:35.450Z,1016.46
2017-09-27T01:25:35.429Z,1016.48
2017-09-27T01:26:35.418Z,1016.5
2017-09-27T01:27:35.394Z,1016.48
2017-09-27T01:28:35.378Z,1016.47
2017-09-27T01:29:35.360Z,1016.49
2017-09-27T01:30:35.341Z,1016.48
2017-09-27T01:31:35.342Z,1016.47
2017-09-27T01:32:35.306Z,1016.47
2017-09-27T01:33:35.287Z,1016.5
2017-09-27T01:34:35.273Z,1016.47
2017-09-27T01:35:35.254Z,1016.45
2017-09-27T01:36:35.241Z,1016.46
2017-09-27T01:37:35.217Z,1016.47
2017-09-27T01:38:35.206Z,1016.48
2017-09-27T01:39:35.181Z,1016.49
2017-09-27T01:40:35.170Z,1016.5
2017-09-27T01:41:35.156Z,1016.48
2017-09-27T01:42:35.140Z,1016.48
2017-09-27T01:43:35.110Z,1016.46
2017-09-27T01:44:35.091Z,1016.47
2017-09-27T01:45:35.073Z,1016.44
2017-09-27T01:46:35.060Z,1016.48
2017-09-27T01:47:35.042Z,1016.48
2017-09-27T01:48:35.025Z,1016.47
2017-09-27T01:49:35.011Z,1016.46
2017-09-27T01:50:34.990Z,1016.45
2017-09-27T01:51:34.971Z,1016.46
2017-09-27T01:52:34.953Z,1016.44
2017-09-27T01:53:34.940Z,1016.41
2017-09-27T01:54:34.928Z,1016.43
2017-09-27T01:55:34.908Z,1016.43
2017-09-27T01:56:34.881Z,1016.47
2017-09-27T01:57:34.861Z,1016.47
2017-09-27T01:58:34.853Z,1016.48
2017-09-27T01:59:34.830Z,1016.46
2017-09-27T02:00:34.811Z,1016.47
2017-09-27T02:01:34.789Z,1016.41
2017-09-27T02:02:34.779Z,1016.45
2017-09-27T02:03:34.773Z,1016.43
2017-09-27T02:04:34.740Z,1016.44
2017-09-27T02:05:34.721Z,1016.42
2017-09-27T02:06:34.703Z,1016.42
2017-09-27T02:07:34.683Z,1016.4
2017-09-27T02:08:34.664Z,1016.42
2017-09-27T02:09:34.654Z,1016.4
2017-09-27T02:10:34.631Z,1016.37
2017-09-27T02:11:34.610Z,1016.4
2017-09-27T02:12:34.595Z,1016.38
2017-09-27T02:13:34.580Z,1016.42
2017-09-27T02:14:34.561Z,1016.45
2017-09-27T02:15:34.541Z,1016.43
2017-09-27T02:16:34.530Z,1016.43
2017-09-27T02:17:34.512Z,1016.44
2017-09-27T02:18:34.492Z,1016.45
2017-09-27T02:19:34.468Z,1016.44
2017-09-27T02:20:34.450Z,1016.47
2017-09-27T02:21:34.433Z,1016.46
2017-09-27T02:22:34.414Z,1016.45
2017-09-27T02:23:34.396Z,1016.45
2017-09-27T02:24:34.379Z,1016.45
2017-09-27T02:25:34.362Z,1016.46
2017-09-27T02:26:34.343Z,1016.44
2017-09-27T02:27:34.328Z,1016.45
2017-09-27T02:28:34.310Z,1016.44
2017-09-27T02:29:34.291Z,1016.47
2017-09-27T02:30:34.283Z,1016.43
2017-09-27T02:31:34.255Z,1016.46
2017-09-27T02:32:34.238Z,1016.42
2017-09-27T02:33:34.220Z,1016.42
2017-09-27T02:34:34.203Z,1016.43
2017-09-27T02:35:34.187Z,1016.43
2017-09-27T02:36:34.170Z,1016.45
2017-09-27T02:37:34.153Z,1016.42
2017-09-27T02:38:34.130Z,1016.42
2017-09-27T02:39:34.113Z,1016.38
2017-09-27T02:40:34.093Z,1016.4
2017-09-27T02:41:34.081Z,1016.41
2017-09-27T02:42:34.056Z,1016.44
2017-09-27T02:43:34.040Z,1016.43
2017-09-27T02:44:34.030Z,1016.43
2017-09-27T02:45:34.014Z,1016.43
2017-09-27T02:46:33.990Z,1016.46
2017-09-27T02:47:33.972Z,1016.46
2017-09-27T02:48:33.953Z,1016.42
2017-09-27T02:49:33.942Z,1016.44
2017-09-27T02:50:33.922Z,1016.43
2017-09-27T02:51:33.900Z,1016.42
2017-09-27T02:52:33.882Z,1016.41
2017-09-27T02:53:33.871Z,1016.43
2017-09-27T02:54:33.850Z,1016.42
2017-09-27T02:55:33.828Z,1016.38
2017-09-27T02:56:33.812Z,1016.4
2017-09-27T02:57:33.792Z,1016.41
2017-09-27T02:58:33.774Z,1016.44
2017-09-27T02:59:33.763Z,1016.43
2017-09-27T03:00:33.738Z,1016.44
2017-09-27T03:01:33.721Z,1016.43
2017-09-27T03:02:33.704Z,1016.45
2017-09-27T03:03:33.696Z,1016.46
2017-09-27T03:04:33.680Z,1016.48
2017-09-27T03:05:33.648Z,1016.48
2017-09-27T03:06:33.642Z,1016.49
2017-09-27T03:07:33.614Z,1016.49
2017-09-27T03:08:33.596Z,1016.5
2017-09-27T03:09:33.579Z,1016.47
2017-09-27T03:10:33.589Z,1016.46
2017-09-27T03:11:33.544Z,1016.5
2017-09-27T03:12:33.524Z,1016.5
2017-09-27T03:13:33.512Z,1016.51
2017-09-27T03:14:33.491Z,1016.5
2017-09-27T03:15:33.470Z,1016.49
2017-09-27T03:16:33.461Z,1016.48
2017-09-27T03:17:33.443Z,1016.51
2017-09-27T03:18:33.417Z,1016.52
2017-09-27T03:19:33.400Z,1016.5
2017-09-27T03:20:33.385Z,1016.48
2017-09-27T03:21:33.374Z,1016.5
2017-09-27T03:22:33.344Z,1016.52
2017-09-27T03:23:33.330Z,1016.54
2017-09-27T03:24:33.314Z,1016.6
2017-09-27T03:25:33.301Z,1016.58
2017-09-27T03:26:33.279Z,1016.61
2017-09-27T03:27:33.260Z,1016.6
2017-09-27T03:28:33.240Z,1016.58
2017-09-27T03:29:33.224Z,1016.58
2017-09-27T03:30:33.206Z,1016.6
2017-09-27T03:31:33.192Z,1016.63
2017-09-27T03:32:33.169Z,1016.61
2017-09-27T03:33:33.149Z,1016.61
2017-09-27T03:34:33.131Z,1016.62
2017-09-27T03:35:33.113Z,1016.6
2017-09-27T03:36:33.096Z,1016.62
2017-09-27T03:37:33.081Z,1016.61
2017-09-27T03:38:33.060Z,1016.63
2017-09-27T03:39:33.042Z,1016.6
2017-09-27T03:40:33.036Z,1016.59
2017-09-27T03:41:33.006Z,1016.59
2017-09-27T03:42:32.990Z,1016.55
2017-09-27T03:43:32.974Z,1016.53
2017-09-27T03:44:32.960Z,1016.55
2017-09-27T03:45:32.940Z,1016.55
2017-09-27T03:46:32.919Z,1016.49
2017-09-27T03:47:32.900Z,1016.48
2017-09-27T03:48:32.879Z,1016.51
2017-09-27T03:49:32.862Z,1016.51
2017-09-27T03:50:32.850Z,1016.51
2017-09-27T03:51:32.830Z,1016.47
2017-09-27T03:52:32.809Z,1016.53
2017-09-27T03:53:32.800Z,1016.52
2017-09-27T03:54:32.782Z,1016.5
2017-09-27T03:55:32.759Z,1016.51
2017-09-27T03:56:32.737Z,1016.51
2017-09-27T03:57:32.722Z,1016.5
2017-09-27T03:58:32.710Z,1016.53
2017-09-27T03:59:32.692Z,1016.53
2017-09-27T04:00:32.671Z,1016.58
2017-09-27T04:01:32.652Z,1016.57
2017-09-27T04:02:32.634Z,1016.56
2017-09-27T04:03:32.622Z,1016.57
2017-09-27T04:04:32.598Z,1016.57
2017-09-27T04:05:32.580Z,1016.59
2017-09-27T04:06:32.560Z,1016.62
2017-09-27T04:07:32.545Z,1016.61
2017-09-27T04:08:32.527Z,1016.63
2017-09-27T04:09:32.508Z,1016.63
2017-09-27T04:10:32.487Z,1016.61
2017-09-27T04:11:32.471Z,1016.59
2017-09-27T04:12:32.459Z,1016.56
2017-09-27T04:13:32.441Z,1016.58
2017-09-27T04:14:32.418Z,1016.59
2017-09-27T04:15:32.398Z,1016.56
2017-09-27T04:16:32.380Z,1016.57
2017-09-27T04:17:32.370Z,1016.57
2017-09-27T04:18:32.344Z,1016.55
2017-09-27T04:19:32.327Z,1016.58
2017-09-27T04:20:32.311Z,1016.54
2017-09-27T04:21:32.299Z,1016.5
2017-09-27T04:22:32.282Z,1016.52
2017-09-27T04:23:32.261Z,1016.49
2017-09-27T04:24:32.242Z,1016.52
2017-09-27T04:25:32.219Z,1016.5
2017-09-27T04:26:32.201Z,1016.51
2017-09-27T04:27:32.189Z,1016.52
2017-09-27T04:28:32.174Z,1016.5
2017-09-27T04:29:32.149Z,1016.54
2017-09-27T04:30:32.131Z,1016.53
2017-09-27T04:31:32.119Z,1016.59
2017-09-27T04:32:32.100Z,1016.57
2017-09-27T04:33:32.076Z,1016.59
2017-09-27T04:34:32.059Z,1016.6
2017-09-27T04:35:32.050Z,1016.58
2017-09-27T04:36:32.030Z,1016.6
2017-09-27T04:37:32.008Z,1016.6
2017-09-27T04:38:31.989Z,1016.61
2017-09-27T04:39:31.970Z,1016.6
2017-09-27T04:40:31.962Z,1016.6
2017-09-27T04:41:31.935Z,1016.59
2017-09-27T04:42:31.921Z,1016.58
2017-09-27T04:43:31.899Z,1016.57
2017-09-27T04:44:31.882Z,1016.64
2017-09-27T04:45:31.870Z,1016.63
2017-09-27T04:46:31.844Z,1016.64
2017-09-27T04:47:31.832Z,1016.63
2017-09-27T04:48:31.810Z,1016.63
2017-09-27T04:49:31.794Z,1016.64
2017-09-27T04:50:31.779Z,1016.63
2017-09-27T04:51:31.759Z,1016.63
2017-09-27T04:52:31.741Z,1016.65
2017-09-27T04:53:31.718Z,1016.64
2017-09-27T04:54:31.701Z,1016.68
2017-09-27T04:55:31.686Z,1016.66
2017-09-27T04:56:31.668Z,1016.68
2017-09-27T04:57:31.648Z,1016.65
2017-09-27T04:58:31.628Z,1016.68
2017-09-27T04:59:31.619Z,1016.66
2017-09-27T05:00:31.602Z,1016.66
2017-09-27T05:01:31.576Z,1016.66
2017-09-27T05:02:31.567Z,1016.67
2017-09-27T05:03:31.541Z,1016.65
2017-09-27T05:04:31.530Z,1016.61
2017-09-27T05:05:31.515Z,1016.63
2017-09-27T05:06:31.488Z,1016.66
2017-09-27T05:07:31.474Z,1016.69
2017-09-27T05:08:31.450Z,1016.7
2017-09-27T05:09:31.436Z,1016.73
2017-09-27T05:10:31.418Z,1016.7
2017-09-27T05:11:31.397Z,1016.75
2017-09-27T05:12:31.379Z,1016.74
2017-09-27T05:13:31.364Z,1016.76
2017-09-27T05:14:31.344Z,1016.75
2017-09-27T05:15:31.330Z,1016.78
2017-09-27T05:16:31.309Z,1016.82
2017-09-27T05:17:31.290Z,1016.79
2017-09-27T05:18:31.279Z,1016.78
2017-09-27T05:19:31.255Z,1016.8
2017-09-27T05:20:31.280Z,1016.81
2017-09-27T05:21:31.222Z,1016.8
2017-09-27T05:22:31.208Z,1016.84
2017-09-27T05:23:31.185Z,1016.81
2017-09-27T05:24:31.272Z,1016.83
2017-09-27T05:25:31.149Z,1016.82
2017-09-27T05:26:31.179Z,1016.83
2017-09-27T05:27:31.114Z,1016.86
2017-09-27T05:28:31.200Z,1016.86
2017-09-27T05:29:31.082Z,1016.84
2017-09-27T05:30:31.061Z,1016.86
2017-09-27T05:31:31.045Z,1016.9
2017-09-27T05:32:31.029Z,1016.89
2017-09-27T05:33:31.007Z,1016.86
2017-09-27T05:34:30.990Z,1016.89
2017-09-27T05:35:30.975Z,1016.88
2017-09-27T05:36:30.958Z,1016.89
2017-09-27T05:37:30.932Z,1016.89
2017-09-27T05:38:30.920Z,1016.9
2017-09-27T05:39:30.908Z,1016.91
2017-09-27T05:40:30.885Z,1016.89
2017-09-27T05:41:30.862Z,1016.95
2017-09-27T05:42:30.846Z,1016.92
2017-09-27T05:43:30.829Z,1016.93
2017-09-27T05:44:30.822Z,1016.93
2017-09-27T05:45:30.792Z,1016.99
2017-09-27T05:46:30.785Z,1016.99
2017-09-27T05:47:30.753Z,1016.98
2017-09-27T05:48:30.739Z,1017.01
2017-09-27T05:49:30.719Z,1017
2017-09-27T05:50:30.705Z,1017.04
2017-09-27T05:51:30.681Z,1017.03
2017-09-27T05:52:30.670Z,1017.06
2017-09-27T05:53:30.645Z,1017.04
2017-09-27T05:54:30.630Z,1017.06
2017-09-27T05:55:30.609Z,1017.02
2017-09-27T05:56:30.594Z,1017.05
2017-09-27T05:57:30.578Z,1017.05
2017-09-27T05:58:30.564Z,1017.05
2017-09-27T05:59:30.540Z,1017.03
2017-09-27T06:00:30.523Z,1017.01
2017-09-27T06:01:30.499Z,1017.01
2017-09-27T06:02:30.580Z,1017.02
2017-09-27T06:03:30.468Z,1017.02
2017-09-27T06:04:30.448Z,1017.01
2017-09-27T06:05:30.429Z,1017.06
2017-09-27T06:06:30.413Z,1017.04
2017-09-27T06:07:30.397Z,1016.98
2017-09-27T06:08:30.374Z,1017.02
2017-09-27T06:09:30.361Z,1017.03
2017-09-27T06:10:30.340Z,1017
2017-09-27T06:11:30.326Z,1017.02
2017-09-27T06:12:30.307Z,1016.95
2017-09-27T06:13:30.287Z,1017.02
2017-09-27T06:14:30.269Z,1017.05
2017-09-27T06:15:30.262Z,1017.05
2017-09-27T06:16:30.229Z,1017.04
2017-09-27T06:17:30.216Z,1017.02
2017-09-27T06:18:30.203Z,1017.02
2017-09-27T06:19:30.181Z,1016.98
2017-09-27T06:20:30.158Z,1017
2017-09-27T06:21:30.139Z,1016.96
2017-09-27T06:22:30.129Z,1017.01
2017-09-27T06:23:30.104Z,1017.05
2017-09-27T06:24:30.092Z,1017.01
2017-09-27T06:25:30.069Z,1017.03
2017-09-27T06:26:30.057Z,1017.06
2017-09-27T06:27:30.041Z,1017.06
2017-09-27T06:28:30.022Z,1017.04
2017-09-27T06:29:29.999Z,1017.05
2017-09-27T06:30:29.981Z,1017.05
2017-09-27T06:31:29.968Z,1017.05
2017-09-27T06:32:29.942Z,1017.04
2017-09-27T06:33:29.926Z,1017.03
2017-09-27T06:34:29.911Z,1017
2017-09-27T06:35:29.890Z,1017.02
2017-09-27T06:36:29.874Z,1017
2017-09-27T06:37:29.855Z,1017.01
2017-09-27T06:38:29.838Z,1017
2017-09-27T06:39:29.818Z,1016.99
2017-09-27T06:40:29.798Z,1017.04
2017-09-27T06:41:29.791Z,1017.08
2017-09-27T06:42:29.768Z,1017.08
2017-09-27T06:43:29.744Z,1017.04
2017-09-27T06:44:29.729Z,1017.1
2017-09-27T06:45:29.707Z,1017.07
2017-09-27T06:46:29.700Z,1017.06
2017-09-27T06:47:29.675Z,1017.07
2017-09-27T06:48:29.662Z,1017.07
2017-09-27T06:49:29.641Z,1017.06
2017-09-27T06:50:29.627Z,1017.06
2017-09-27T06:51:29.603Z,1017.04
2017-09-27T06:52:29.602Z,1017.07
2017-09-27T06:53:29.568Z,1017.06
2017-09-27T06:54:29.547Z,1017.08
2017-09-27T06:55:29.533Z,1017.06
2017-09-27T06:56:29.518Z,1017.06
2017-09-27T06:57:29.502Z,1017.11
2017-09-27T06:58:29.480Z,1017.11
2017-09-27T06:59:29.459Z,1017.07
2017-09-27T07:00:29.442Z,1017.08
2017-09-27T07:01:29.426Z,1017.09
2017-09-27T07:02:29.412Z,1017.13
2017-09-27T07:03:29.389Z,1017.12
2017-09-27T07:04:29.373Z,1017.15
2017-09-27T07:05:29.350Z,1017.16
2017-09-27T07:06:29.336Z,1017.17
2017-09-27T07:07:29.319Z,1017.16
2017-09-27T07:08:29.349Z,1017.17
2017-09-27T07:09:29.282Z,1017.16
2017-09-27T07:10:29.268Z,1017.18
2017-09-27T07:11:29.245Z,1017.16
2017-09-27T07:12:29.232Z,1017.14
2017-09-27T07:13:29.214Z,1017.15
2017-09-27T07:14:29.191Z,1017.12
2017-09-27T07:15:29.179Z,1017.15
2017-09-27T07:16:29.160Z,1017.16
2017-09-27T07:17:29.141Z,1017.19
2017-09-27T07:18:29.124Z,1017.23
2017-09-27T07:19:29.110Z,1017.17
2017-09-27T07:20:29.089Z,1017.19
2017-09-27T07:21:29.067Z,1017.23
2017-09-27T07:22:29.050Z,1017.18
2017-09-27T07:23:29.031Z,1017.17
2017-09-27T07:24:29.018Z,1017.16
2017-09-27T07:25:28.997Z,1017.18
2017-09-27T07:26:28.979Z,1017.19
2017-09-27T07:27:28.968Z,1017.19
2017-09-27T07:28:28.944Z,1017.19
2017-09-27T07:29:28.941Z,1017.2
2017-09-27T07:30:28.911Z,1017.2
2017-09-27T07:31:28.891Z,1017.21
2017-09-27T07:32:28.875Z,1017.25
2017-09-27T07:33:28.864Z,1017.27
2017-09-27T07:34:28.842Z,1017.25
2017-09-27T07:35:28.818Z,1017.28
2017-09-27T07:36:28.799Z,1017.3
2017-09-27T07:37:28.786Z,1017.3
2017-09-27T07:38:28.773Z,1017.31
2017-09-27T07:39:28.750Z,1017.28
2017-09-27T07:40:28.736Z,1017.33
2017-09-27T07:41:28.720Z,1017.33
2017-09-27T07:42:28.705Z,1017.3
2017-09-27T07:43:28.681Z,1017.33
2017-09-27T07:44:28.661Z,1017.35
2017-09-27T07:45:28.641Z,1017.35
2017-09-27T07:46:28.630Z,1017.36
2017-09-27T07:47:28.609Z,1017.36
2017-09-27T07:48:28.585Z,1017.42
2017-09-27T07:49:28.575Z,1017.41
2017-09-27T07:50:28.555Z,1017.33
2017-09-27T07:51:28.536Z,1017.37
2017-09-27T07:52:28.520Z,1017.36
2017-09-27T07:53:28.498Z,1017.37
2017-09-27T07:54:28.483Z,1017.38
2017-09-27T07:55:28.459Z,1017.41
2017-09-27T07:56:28.449Z,1017.42
2017-09-27T07:57:28.431Z,1017.43
2017-09-27T07:58:28.408Z,1017.41
2017-09-27T07:59:28.389Z,1017.42
2017-09-27T08:00:28.369Z,1017.44
2017-09-27T08:01:28.355Z,1017.44
2017-09-27T08:02:28.344Z,1017.43
2017-09-27T08:03:28.319Z,1017.41
2017-09-27T08:04:28.300Z,1017.42
2017-09-27T08:05:28.285Z,1017.43
2017-09-27T08:06:28.270Z,1017.38
2017-09-27T08:07:28.246Z,1017.39
2017-09-27T08:08:28.230Z,1017.39
2017-09-27T08:09:28.211Z,1017.35
2017-09-27T08:10:28.195Z,1017.38
2017-09-27T08:11:28.180Z,1017.43
2017-09-27T08:12:28.157Z,1017.47
2017-09-27T08:13:28.150Z,1017.46
2017-09-27T08:14:28.124Z,1017.45
2017-09-27T08:15:28.110Z,1017.44
2017-09-27T08:16:28.088Z,1017.45
2017-09-27T08:17:28.070Z,1017.49
2017-09-27T08:18:28.059Z,1017.48
2017-09-27T08:19:28.038Z,1017.49
2017-09-27T08:20:28.021Z,1017.48
2017-09-27T08:21:28.001Z,1017.48
2017-09-27T08:22:27.983Z,1017.51
2017-09-27T08:23:27.967Z,1017.51
2017-09-27T08:24:27.947Z,1017.51
2017-09-27T08:25:27.928Z,1017.48
2017-09-27T08:26:27.910Z,1017.49
2017-09-27T08:27:27.899Z,1017.53
2017-09-27T08:28:27.879Z,1017.49
2017-09-27T08:29:27.858Z,1017.48
2017-09-27T08:30:27.844Z,1017.55
2017-09-27T08:31:27.832Z,1017.55
2017-09-27T08:32:27.810Z,1017.55
2017-09-27T08:33:27.790Z,1017.55
2017-09-27T08:34:27.771Z,1017.55
2017-09-27T08:35:27.754Z,1017.57
2017-09-27T08:36:27.743Z,1017.57
2017-09-27T08:37:27.721Z,1017.55
2017-09-27T08:38:27.714Z,1017.57
2017-09-27T08:39:27.692Z,1017.51
2017-09-27T08:40:27.683Z,1017.51
2017-09-27T08:41:27.661Z,1017.53
2017-09-27T08:42:27.644Z,1017.5
2017-09-27T08:43:27.620Z,1017.53
2017-09-27T08:44:27.603Z,1017.52
2017-09-27T08:45:27.584Z,1017.54
2017-09-27T08:46:27.572Z,1017.56
2017-09-27T08:47:27.554Z,1017.54
2017-09-27T08:48:27.533Z,1017.58
2017-09-27T08:49:27.537Z,1017.59
2017-09-27T08:50:27.500Z,1017.59
2017-09-27T08:51:27.493Z,1017.62
2017-09-27T08:52:27.471Z,1017.58
2017-09-27T08:53:27.451Z,1017.57
2017-09-27T08:54:27.431Z,1017.61
2017-09-27T08:55:27.421Z,1017.61
2017-09-27T08:56:27.398Z,1017.6
2017-09-27T08:57:27.383Z,1017.58
2017-09-27T08:58:27.369Z,1017.58
2017-09-27T08:59:27.355Z,1017.58
2017-09-27T09:00:27.342Z,1017.63
2017-09-27T09:01:27.323Z,1017.62
2017-09-27T09:02:27.307Z,1017.61
2017-09-27T09:03:27.304Z,1017.64
2017-09-27T09:04:27.281Z,1017.59
2017-09-27T09:05:27.269Z,1017.66
2017-09-27T09:06:27.257Z,1017.6
2017-09-27T09:07:27.242Z,1017.62
2017-09-27T09:08:27.231Z,1017.61
2017-09-27T09:09:27.220Z,1017.62
2017-09-27T09:10:27.212Z,1017.61
2017-09-27T09:11:27.201Z,1017.66
2017-09-27T09:12:27.183Z,1017.67
2017-09-27T09:13:27.174Z,1017.67
2017-09-27T09:14:27.160Z,1017.66
2017-09-27T09:15:27.151Z,1017.64
2017-09-27T09:16:27.141Z,1017.66
2017-09-27T09:17:27.129Z,1017.65
2017-09-27T09:18:27.119Z,1017.72
2017-09-27T09:19:27.121Z,1017.76
2017-09-27T09:20:27.110Z,1017.73
2017-09-27T09:21:27.110Z,1017.73
2017-09-27T09:22:27.088Z,1017.79
2017-09-27T09:23:27.079Z,1017.77
2017-09-27T09:24:27.069Z,1017.79
2017-09-27T09:25:27.065Z,1017.8
2017-09-27T09:26:27.057Z,1017.79
2017-09-27T09:27:27.089Z,1017.79
2017-09-27T09:28:27.038Z,1017.8
2017-09-27T09:29:27.047Z,1017.8
2017-09-27T09:30:27.020Z,1017.73
2017-09-27T09:31:27.020Z,1017.76
2017-09-27T09:32:27.008Z,1017.75
2017-09-27T09:33:26.999Z,1017.79
2017-09-27T09:34:26.992Z,1017.72
2017-09-27T09:35:26.990Z,1017.74
2017-09-27T09:36:26.985Z,1017.73
2017-09-27T09:37:26.973Z,1017.71
2017-09-27T09:38:26.964Z,1017.69
2017-09-27T09:39:26.956Z,1017.68
2017-09-27T09:40:26.949Z,1017.63
2017-09-27T09:41:26.950Z,1017.66
2017-09-27T09:42:26.933Z,1017.65
2017-09-27T09:43:26.926Z,1017.65
2017-09-27T09:44:26.919Z,1017.63
2017-09-27T09:45:26.922Z,1017.65
2017-09-27T09:46:26.902Z,1017.56
2017-09-27T09:47:26.899Z,1017.54
2017-09-27T09:48:26.902Z,1017.56
2017-09-27T09:49:26.890Z,1017.56
2017-09-27T09:50:26.879Z,1017.58
2017-09-27T09:51:26.869Z,1017.58
2017-09-27T09:52:26.859Z,1017.53
2017-09-27T09:53:26.850Z,1017.54
2017-09-27T09:54:26.837Z,1017.52
2017-09-27T09:55:26.831Z,1017.58
2017-09-27T09:56:26.826Z,1017.59
2017-09-27T09:57:26.810Z,1017.59
2017-09-27T09:58:26.799Z,1017.6
2017-09-27T09:59:26.790Z,1017.6
2017-09-27T10:00:26.782Z,1017.62
2017-09-27T10:01:26.779Z,1017.62
2017-09-27T10:02:26.763Z,1017.61
2017-09-27T10:03:26.758Z,1017.6
2017-09-27T10:04:26.746Z,1017.55
2017-09-27T10:05:26.742Z,1017.59
2017-09-27T10:06:26.736Z,1017.57
2017-09-27T10:07:26.730Z,1017.56
2017-09-27T10:08:26.715Z,1017.57
2017-09-27T10:09:26.706Z,1017.54
2017-09-27T10:10:26.699Z,1017.56
2017-09-27T10:11:26.691Z,1017.56
2017-09-27T10:12:26.680Z,1017.53
2017-09-27T10:13:26.680Z,1017.53
2017-09-27T10:14:26.669Z,1017.49
2017-09-27T10:15:26.653Z,1017.47
2017-09-27T10:16:26.650Z,1017.52
2017-09-27T10:17:26.641Z,1017.51
2017-09-27T10:18:26.629Z,1017.47
2017-09-27T10:19:26.622Z,1017.5
2017-09-27T10:20:26.615Z,1017.47
2017-09-27T10:21:26.604Z,1017.44
2017-09-27T10:22:26.599Z,1017.46
2017-09-27T10:23:26.590Z,1017.45
2017-09-27T10:24:26.587Z,1017.46
2017-09-27T10:25:26.571Z,1017.46
2017-09-27T10:26:26.561Z,1017.44
2017-09-27T10:27:26.552Z,1017.4
2017-09-27T10:28:26.541Z,1017.4
2017-09-27T10:29:26.532Z,1017.39
2017-09-27T10:30:26.520Z,1017.39
2017-09-27T10:31:26.511Z,1017.39
2017-09-27T10:32:26.500Z,1017.37
2017-09-27T10:33:26.492Z,1017.39
2017-09-27T10:34:26.483Z,1017.39
2017-09-27T10:35:26.472Z,1017.39
2017-09-27T10:36:26.464Z,1017.36
2017-09-27T10:37:26.451Z,1017.36
2017-09-27T10:38:26.444Z,1017.34
2017-09-27T10:39:26.430Z,1017.36
2017-09-27T10:40:26.431Z,1017.34
2017-09-27T10:41:26.410Z,1017.35
2017-09-27T10:42:26.405Z,1017.34
2017-09-27T10:43:26.392Z,1017.39
2017-09-27T10:44:26.385Z,1017.39
2017-09-27T10:45:26.376Z,1017.34
2017-09-27T10:46:26.376Z,1017.39
2017-09-27T10:47:26.363Z,1017.35
2017-09-27T10:48:26.349Z,1017.36
2017-09-27T10:49:26.342Z,1017.37
2017-09-27T10:50:26.336Z,1017.36
2017-09-27T10:51:26.329Z,1017.34
2017-09-27T10:52:26.315Z,1017.34
2017-09-27T10:53:26.311Z,1017.32
2017-09-27T10:54:26.310Z,1017.31
2017-09-27T10:55:26.291Z,1017.3
2017-09-27T10:56:26.280Z,1017.3
2017-09-27T10:57:26.273Z,1017.3
2017-09-27T10:58:26.272Z,1017.31
2017-09-27T10:59:26.264Z,1017.26
2017-09-27T11:00:26.261Z,1017.25
2017-09-27T11:01:26.256Z,1017.24
2017-09-27T11:02:26.278Z,1017.26
2017-09-27T11:03:26.224Z,1017.29
2017-09-27T11:04:26.229Z,1017.29
2017-09-27T11:05:26.208Z,1017.3
2017-09-27T11:06:26.200Z,1017.25
2017-09-27T11:07:26.194Z,1017.29
2017-09-27T11:08:26.196Z,1017.28
2017-09-27T11:09:26.170Z,1017.27
2017-09-27T11:10:26.172Z,1017.27
2017-09-27T11:11:26.156Z,1017.27
2017-09-27T11:12:26.164Z,1017.25
2017-09-27T11:13:26.135Z,1017.22
2017-09-27T11:14:26.127Z,1017.22
2017-09-27T11:15:26.118Z,1017.26
2017-09-27T11:16:26.108Z,1017.24
2017-09-27T11:17:26.100Z,1017.22
2017-09-27T11:18:26.090Z,1017.2
2017-09-27T11:19:26.080Z,1017.23
2017-09-27T11:20:26.073Z,1017.24
2017-09-27T11:21:26.067Z,1017.2
2017-09-27T11:22:26.061Z,1017.22
2017-09-27T11:23:26.059Z,1017.19
2017-09-27T11:24:26.050Z,1017.18
2017-09-27T11:25:26.031Z,1017.19
2017-09-27T11:26:26.020Z,1017.2
2017-09-27T11:27:26.012Z,1017.2
2017-09-27T11:28:26.001Z,1017.2
2017-09-27T11:29:26.004Z,1017.18
2017-09-27T11:30:25.985Z,1017.18
2017-09-27T11:31:25.979Z,1017.22
2017-09-27T11:32:25.968Z,1017.15
2017-09-27T11:33:25.959Z,1017.15
2017-09-27T11:34:25.954Z,1017.14
2017-09-27T11:35:25.944Z,1017.14
2017-09-27T11:36:25.942Z,1017.1
2017-09-27T11:37:25.938Z,1017.08
2017-09-27T11:38:26.001Z,1017.09
2017-09-27T11:39:25.937Z,1017.08
2017-09-27T11:40:25.938Z,1017.06
2017-09-27T11:41:25.897Z,1017.03
2017-09-27T11:42:25.889Z,1017.05
2017-09-27T11:43:25.910Z,1017.05
2017-09-27T11:44:25.964Z,1017.04
2017-09-27T11:45:25.869Z,1017.01
2017-09-27T11:46:25.849Z,1017.03
2017-09-27T11:47:25.840Z,1017.01
2017-09-27T11:48:25.880Z,1016.97
2017-09-27T11:49:25.819Z,1016.98
2017-09-27T11:50:25.861Z,1016.97
2017-09-27T11:51:25.804Z,1016.95
2017-09-27T11:52:25.799Z,1016.91
2017-09-27T11:53:25.788Z,1016.94
2017-09-27T11:54:25.857Z,1016.88
2017-09-27T11:55:25.769Z,1016.86
2017-09-27T11:56:25.758Z,1016.87
2017-09-27T11:57:25.750Z,1016.85
2017-09-27T11:58:25.741Z,1016.86
2017-09-27T11:59:25.738Z,1016.85
2017-09-27T12:00:25.723Z,1016.83
2017-09-27T12:01:25.711Z,1016.8
2017-09-27T12:02:25.703Z,1016.82
2017-09-27T12:03:25.698Z,1016.82
2017-09-27T12:04:25.689Z,1016.8
2017-09-27T12:05:25.678Z,1016.82
2017-09-27T12:06:25.672Z,1016.8
2017-09-27T12:07:25.666Z,1016.82
2017-09-27T12:08:25.657Z,1016.79